cloudbaseCUmx.php :- Version MX_2.2.4a - 22-April-2022
    copyright © 2022 Silver Acorn Weather 
    PHP Version 7.4.30


TIME and DATE
    Time Zone :- Pacific/Auckland (GMT+12 hours)
    Daylight saving ? :- No
    Date/Time :- Thu, 11 Aug 2022 20:47:06 (Day)
    Last updated :- 16:45 Thursday, August 11, 2022

INPUT ITEM: RAW DATA -> DERIVED
    Current temp :- 16.4 °C
    Dewpoint :- 8.7 °C
    Rain Fall :- 0.0 mm
    Barometer :- 1025 hPa
    Humidity :- 60 %
    Wind Speed :- 3 km/h
    Wind Dir :- 195 degrees
    Cloud Altitude :- 3187 ft (AGL)
    Latitude :- -31.958889 S = Southern Hemisphere
    Season :- Winter
    Moon Age :- 14 days
    Moon Percent :- 99
    Day or Night ? :- Day
    Tag file time Interval :- 5 Minutes

CUMULUS CONDITIONS
    Cumulus conditions not in use
    Zambretti # :- 2

METAR CONDITONS - Metar Times UTC, Update Station times based on timezone setting
    $pathToMetFile :- ./cache/
    Metar - Rawdata :- 2022/08/11 08:30 YPPH 110830Z 06007KT 030V100 9999 FEW048 18/07 Q1024
    Metar - Trimmed :- 110830Z 06007KT 030V100 9999 FEW048 18/07 Q1024
    Metar - Decoded :- Not Raining; Partly Cloudy
    Now :- 1660207623 seconds
    Metar report timestamp :- 1660206600 seconds
    Age of File :- 17.05 minutes
    When to update Metar :- 1660198140 seconds   (Metar report timestamp plus 39 mins refresh time)
    Next Download in :- -158.05 Minutes (if  '-' then refresh page, if still '-' then Metar update overdue!)
    Metar file :- New File downloaded
     AUTO Metar station updates usually every 30 minutes. MANUAL Metar station updates usually Hourly.

OUTPUT DATA

    Background image file name :- ./images/cb/cb-bg-00wind.png
    $showAGL / ASL :- true
    Cloud Temp :- -1 °C
    $useWXrain :- true
    $tag interval :- 5
    Last rained :- 1.55 days ago
    Last rained Y-M-D h:m :- 2022-08-10 03:32
    No rain in last 5 minutes :- Not raining

SETTINGS
    $tagfile :- ./CUtags.php
    $time last update :- 16:45 on 11 August 2022
    $ICAO :- YPPH
    $pathToMetFile :- ./cache/
    $tz :- Pacific/Auckland
    $pathToImages :- ./images/cb/  ( background, cloud, windsock and scale images )
    $srcmoonimgdir :- ./images/moon/  ( source of moon images )
    $dstmoonimgdir :- ./images/moon/  ( cbmoon.png )
    $switchSeasons :- true
    $showCldSource :- true
    $showCloudTemp :- true
    $showCaption :- true
    $showMoon :- true
    $showScale :- true
    $showWinsock :- false
    $showWindDir :- false
    $showWindSpd :- false
    $showTemp :- false
    $showHumidity :- false
    $showBaro :- false
    $alwaysShowCloud :- false
    $useCUHeight :- true
    $getMetar :- true
    $metarRefresh :- true
    $useMetarAtNight :- true
    $onlyUseMetar :- true
    $reportMistAt :- 25 ft
    $reportFogAt :- 10 ft
    $stationAltitude :- 245 m AGL